createdAt,value
2018-01-18T00:00:42.356Z,0
2018-01-18T00:01:51.939Z,0
2018-01-18T00:03:01.755Z,0
2018-01-18T00:04:11.866Z,0
2018-01-18T00:05:21.654Z,0
2018-01-18T00:06:31.450Z,0
2018-01-18T00:07:41.485Z,0
2018-01-18T00:08:51.264Z,0
2018-01-18T00:10:01.316Z,0
2018-01-18T00:11:11.353Z,0
2018-01-18T00:12:21.416Z,0
2018-01-18T00:13:31.487Z,0
2018-01-18T00:14:41.598Z,0
2018-01-18T00:15:51.642Z,0
2018-01-18T00:17:02.393Z,0
2018-01-18T00:18:12.444Z,0
2018-01-18T00:19:22.540Z,0
2018-01-18T00:20:32.581Z,0
2018-01-18T00:21:41.833Z,0
2018-01-18T00:22:52.231Z,0
2018-01-18T00:24:02.277Z,0
2018-01-18T00:25:12.364Z,0
2018-01-18T00:26:22.417Z,0
2018-01-18T00:27:32.456Z,0
2018-01-18T00:28:42.500Z,0
2018-01-18T00:29:52.294Z,0
2018-01-18T00:31:02.128Z,0
2018-01-18T00:32:12.178Z,0
2018-01-18T00:33:22.233Z,0
2018-01-18T00:34:32.006Z,0
2018-01-18T00:35:42.059Z,0
2018-01-18T00:36:52.117Z,0
2018-01-18T00:38:02.163Z,0
2018-01-18T00:39:12.216Z,0
2018-01-18T00:40:22.258Z,0
2018-01-18T00:41:32.295Z,0
2018-01-18T00:42:42.144Z,0
2018-01-18T00:43:52.199Z,0
2018-01-18T00:45:02.228Z,0
2018-01-18T00:46:12.016Z,0
2018-01-18T00:47:22.053Z,0
2018-01-18T00:48:31.887Z,0
2018-01-18T00:49:41.926Z,0
2018-01-18T00:50:51.971Z,0
2018-01-18T00:52:02.014Z,0
2018-01-18T00:53:12.065Z,0
2018-01-18T00:54:22.209Z,0
2018-01-18T00:55:32.258Z,0
2018-01-18T00:56:42.300Z,0
2018-01-18T00:57:52.352Z,0
2018-01-18T00:59:02.398Z,0
2018-01-18T01:00:12.486Z,0
2018-01-18T01:01:22.536Z,0
2018-01-18T01:02:32.325Z,0
2018-01-18T01:03:41.857Z,0
2018-01-18T01:04:51.388Z,0
2018-01-18T01:06:01.501Z,0
2018-01-18T01:07:11.348Z,0
2018-01-18T01:08:21.143Z,0
2018-01-18T01:09:31.199Z,0
2018-01-18T01:10:41.239Z,0
2018-01-18T01:11:51.325Z,0
2018-01-18T01:13:01.379Z,0
2018-01-18T01:14:11.425Z,0
2018-01-18T01:15:21.469Z,0
2018-01-18T01:16:31.250Z,0
2018-01-18T01:17:41.047Z,0
2018-01-18T01:18:51.124Z,0
2018-01-18T01:20:01.162Z,0
2018-01-18T01:21:11.203Z,0
2018-01-18T01:22:21.004Z,0
2018-01-18T01:23:31.054Z,0
2018-01-18T01:33:37.093Z,0
2018-01-18T01:34:47.690Z,0
2018-01-18T01:35:57.221Z,0
2018-01-18T01:37:07.012Z,0
2018-01-18T01:38:17.065Z,0
2018-01-18T01:39:27.156Z,0
2018-01-18T01:40:36.941Z,0
2018-01-18T01:41:46.996Z,0
2018-01-18T01:42:56.764Z,0
2018-01-18T01:44:06.812Z,0
2018-01-18T01:45:16.913Z,0
2018-01-18T01:46:26.966Z,0
2018-01-18T01:47:37.024Z,0
2018-01-18T01:48:47.081Z,0
2018-01-18T01:49:57.128Z,0
2018-01-18T01:51:07.189Z,0
2018-01-18T01:52:17.233Z,0
2018-01-18T01:53:27.296Z,0
2018-01-18T01:54:37.351Z,0
2018-01-18T01:55:47.116Z,0
2018-01-18T01:56:57.206Z,0
2018-01-18T01:58:07.246Z,0
2018-01-18T01:59:17.318Z,0
2018-01-18T02:00:27.363Z,0
2018-01-18T02:01:37.408Z,0
2018-01-18T02:02:47.444Z,0
2018-01-18T02:03:57.504Z,0
2018-01-18T02:05:07.537Z,0
2018-01-18T02:06:17.591Z,0
2018-01-18T02:07:27.626Z,0
2018-01-18T02:08:37.776Z,0
2018-01-18T02:09:47.811Z,0
2018-01-18T02:10:57.845Z,0
2018-01-18T02:12:07.907Z,0
2018-01-18T02:13:17.939Z,0
2018-01-18T02:14:27.981Z,0
2018-01-18T02:15:38.023Z,0
2018-01-18T02:16:48.078Z,0
2018-01-18T02:17:58.130Z,0
2018-01-18T02:19:08.195Z,0
2018-01-18T02:20:19.301Z,0
2018-01-18T02:21:29.340Z,0
2018-01-18T02:22:39.400Z,0
2018-01-18T02:23:49.446Z,0
2018-01-18T02:24:59.476Z,0
2018-01-18T02:26:09.509Z,0
2018-01-18T02:27:19.583Z,0
2018-01-18T02:28:29.637Z,0
2018-01-18T02:29:39.682Z,0
2018-01-18T02:30:49.820Z,0
2018-01-18T02:31:59.907Z,0
2018-01-18T02:33:09.958Z,0
2018-01-18T02:34:20.026Z,0
2018-01-18T02:35:30.062Z,0
2018-01-18T02:36:39.838Z,0
2018-01-18T02:37:49.664Z,0
2018-01-18T02:38:59.710Z,0
2018-01-18T02:40:09.753Z,0
2018-01-18T02:41:19.805Z,0
2018-01-18T02:42:29.618Z,0
2018-01-18T02:43:39.674Z,0
2018-01-18T02:44:48.935Z,0
2018-01-18T02:45:58.722Z,0
2018-01-18T02:47:08.510Z,0
2018-01-18T02:48:18.625Z,0
2018-01-18T02:49:28.713Z,0
2018-01-18T02:50:38.766Z,0
2018-01-18T02:51:48.821Z,0
2018-01-18T02:52:58.606Z,0
2018-01-18T02:54:08.388Z,0
2018-01-18T02:55:18.481Z,0
2018-01-18T02:56:28.528Z,0
2018-01-18T02:57:38.579Z,0
2018-01-18T02:58:48.617Z,0
2018-01-18T02:59:58.714Z,0
2018-01-18T03:01:08.900Z,0
2018-01-18T03:02:19.732Z,0
2018-01-18T03:34:38.467Z,0
2018-01-18T03:35:48.509Z,0
2018-01-18T03:36:58.550Z,0
2018-01-18T03:38:08.337Z,0
2018-01-18T03:39:18.378Z,0
2018-01-18T03:40:28.200Z,0
2018-01-18T03:41:38.226Z,0
2018-01-18T03:42:48.304Z,0
2018-01-18T03:43:58.346Z,0
2018-01-18T03:45:08.389Z,0
2018-01-18T03:46:18.492Z,0
2018-01-18T03:47:28.550Z,0
2018-01-18T03:48:38.582Z,0
2018-01-18T03:49:48.644Z,0
2018-01-18T03:50:58.695Z,0
2018-01-18T03:52:08.787Z,0
2018-01-18T03:53:18.892Z,0
2018-01-18T03:54:28.922Z,0
2018-01-18T03:55:38.705Z,0
2018-01-18T03:56:48.757Z,0
2018-01-18T03:57:58.842Z,0
2018-01-18T03:59:08.367Z,0
2018-01-18T04:00:18.403Z,0
2018-01-18T04:01:28.439Z,0
2018-01-18T04:02:38.478Z,0
2018-01-18T04:03:48.690Z,0
2018-01-18T04:04:58.726Z,0
2018-01-18T04:06:08.521Z,0
2018-01-18T04:07:18.310Z,0
2018-01-18T04:08:28.093Z,0
2018-01-18T04:09:38.148Z,0
2018-01-18T04:10:48.196Z,0
2018-01-18T04:11:58.257Z,0
2018-01-18T04:13:08.300Z,0
2018-01-18T04:14:18.332Z,0
2018-01-18T04:15:28.373Z,0
2018-01-18T04:16:38.149Z,0
2018-01-18T04:17:48.205Z,0
2018-01-18T04:18:58.241Z,0
2018-01-18T04:20:08.026Z,0
2018-01-18T04:21:18.082Z,0
2018-01-18T04:22:28.124Z,0
2018-01-18T04:23:37.910Z,0
2018-01-18T04:24:47.965Z,0
2018-01-18T04:25:58.013Z,0
2018-01-18T04:27:07.858Z,0
2018-01-18T04:28:17.654Z,0
2018-01-18T04:29:27.698Z,0
2018-01-18T04:30:37.736Z,0
2018-01-18T04:31:47.538Z,0
2018-01-18T04:32:57.579Z,0
2018-01-18T04:34:07.655Z,0
2018-01-18T04:35:17.167Z,0
2018-01-18T04:36:27.218Z,0
2018-01-18T04:37:37.255Z,0
2018-01-18T04:38:47.457Z,0
2018-01-18T04:39:57.498Z,0
2018-01-18T04:41:07.535Z,0
2018-01-18T04:42:17.327Z,0
2018-01-18T04:43:27.373Z,0
2018-01-18T04:44:37.216Z,0
2018-01-18T04:45:47.259Z,0
2018-01-18T04:46:57.342Z,0
2018-01-18T04:48:07.395Z,0
2018-01-18T04:49:17.428Z,0
2018-01-18T04:50:27.511Z,0
2018-01-18T04:51:37.572Z,0
2018-01-18T04:52:47.348Z,0
2018-01-18T04:53:57.416Z,0
2018-01-18T04:55:07.196Z,0
2018-01-18T04:56:17.297Z,0
2018-01-18T04:57:27.406Z,0
2018-01-18T04:58:37.446Z,0
2018-01-18T04:59:47.498Z,0
2018-01-18T05:00:57.535Z,0
2018-01-18T05:02:07.573Z,0
2018-01-18T05:03:17.621Z,0
2018-01-18T05:04:27.420Z,0
2018-01-18T05:05:37.233Z,0
2018-01-18T05:06:47.274Z,0
2018-01-18T05:07:57.371Z,0
2018-01-18T05:09:07.413Z,0
2018-01-18T05:10:17.449Z,0
2018-01-18T05:11:27.476Z,0
2018-01-18T05:12:37.273Z,0
2018-01-18T05:13:47.416Z,0
2018-01-18T05:14:57.261Z,0
2018-01-18T05:16:07.056Z,0
2018-01-18T05:17:16.855Z,0
2018-01-18T05:18:26.994Z,0
2018-01-18T05:19:36.520Z,0
2018-01-18T05:20:46.566Z,0
2018-01-18T05:21:56.372Z,0
2018-01-18T05:23:06.428Z,0
2018-01-18T05:24:16.470Z,0
2018-01-18T05:25:26.338Z,0
2018-01-18T05:26:36.115Z,0
2018-01-18T05:27:46.161Z,0
2018-01-18T05:28:55.951Z,0
2018-01-18T05:30:06.004Z,0
2018-01-18T05:31:16.092Z,0
2018-01-18T05:32:26.138Z,0
2018-01-18T05:33:35.931Z,0
2018-01-18T05:34:45.726Z,0
2018-01-18T05:35:55.775Z,0
2018-01-18T05:37:05.723Z,0
2018-01-18T05:38:15.772Z,0
2018-01-18T05:39:25.822Z,0
2018-01-18T05:40:35.860Z,0
2018-01-18T05:41:45.897Z,0
2018-01-18T05:42:56.053Z,0
2018-01-18T05:44:06.098Z,0
2018-01-18T05:45:16.157Z,0
2018-01-18T05:46:26.195Z,0
2018-01-18T05:47:36.243Z,0
2018-01-18T05:48:46.388Z,0
2018-01-18T05:49:56.170Z,0
2018-01-18T05:51:05.950Z,0
2018-01-18T05:52:15.741Z,0
2018-01-18T05:53:25.264Z,0
2018-01-18T05:54:35.366Z,0
2018-01-18T05:55:45.412Z,0
2018-01-18T05:56:55.464Z,0
2018-01-18T05:58:05.564Z,0
2018-01-18T05:59:15.349Z,0
2018-01-18T06:00:25.175Z,0
2018-01-18T06:01:34.961Z,0
2018-01-18T06:02:44.738Z,0
2018-01-18T06:03:54.765Z,0
2018-01-18T06:05:04.562Z,0
2018-01-18T06:06:14.658Z,0
2018-01-18T06:07:24.705Z,0
2018-01-18T06:08:34.502Z,0
2018-01-18T06:09:44.288Z,0
2018-01-18T06:10:54.085Z,0
2018-01-18T06:12:03.867Z,0
2018-01-18T06:13:13.925Z,0
2018-01-18T06:14:24.014Z,0
2018-01-18T06:15:34.054Z,0
2018-01-18T06:16:44.095Z,0
2018-01-18T06:17:53.657Z,0
2018-01-18T06:19:03.715Z,0
2018-01-18T06:20:13.759Z,0
2018-01-18T06:21:23.808Z,0
2018-01-18T06:22:33.868Z,0
2018-01-18T06:23:43.713Z,0
2018-01-18T06:24:53.751Z,0
2018-01-18T06:26:03.794Z,0
2018-01-18T06:27:13.844Z,0
2018-01-18T06:28:23.882Z,0
2018-01-18T06:29:34.330Z,0
2018-01-18T06:30:44.114Z,0
2018-01-18T06:31:54.172Z,0
2018-01-18T06:33:03.964Z,0
2018-01-18T06:34:14.015Z,0
2018-01-18T06:35:23.849Z,5
2018-01-18T06:36:33.890Z,5
2018-01-18T06:37:43.934Z,5
2018-01-18T06:38:53.207Z,5
2018-01-18T06:40:03.008Z,5
2018-01-18T06:41:12.824Z,5
2018-01-18T06:42:22.867Z,5
2018-01-18T06:43:32.655Z,5
2018-01-18T06:44:42.453Z,5
2018-01-18T06:45:52.495Z,10
2018-01-18T06:47:02.275Z,10
2018-01-18T06:48:12.062Z,10
2018-01-18T06:49:22.113Z,10
2018-01-18T06:50:31.906Z,10
2018-01-18T06:51:41.699Z,15
2018-01-18T06:52:51.287Z,15
2018-01-18T06:54:01.092Z,15
2018-01-18T06:55:11.138Z,15
2018-01-18T06:56:20.924Z,20
2018-01-18T06:57:30.720Z,20
2018-01-18T06:58:40.780Z,20
2018-01-18T06:59:50.819Z,20
2018-01-18T07:01:00.871Z,25
2018-01-18T07:02:10.653Z,25
2018-01-18T07:03:20.694Z,25
2018-01-18T07:04:30.791Z,30
2018-01-18T07:05:40.588Z,30
2018-01-18T07:06:50.629Z,30
2018-01-18T07:08:00.425Z,35
2018-01-18T07:09:10.204Z,35
2018-01-18T07:10:20.002Z,35
2018-01-18T07:11:30.107Z,35
2018-01-18T07:12:39.904Z,40
2018-01-18T07:13:49.966Z,40
2018-01-18T07:15:00.023Z,40
2018-01-18T07:16:10.077Z,40
2018-01-18T07:17:20.098Z,35
2018-01-18T07:18:30.149Z,35
2018-01-18T07:19:40.215Z,40
2018-01-18T07:20:50.010Z,45
2018-01-18T07:22:00.113Z,45
2018-01-18T07:23:11.356Z,50
2018-01-18T07:24:21.488Z,55
2018-01-18T07:25:31.528Z,50
2018-01-18T07:26:41.321Z,45
2018-01-18T07:27:51.116Z,55
2018-01-18T07:29:01.164Z,60
2018-01-18T07:30:12.369Z,60
2018-01-18T07:31:22.433Z,55
2018-01-18T07:32:32.505Z,55
2018-01-18T07:33:42.556Z,60
2018-01-18T07:34:52.588Z,60
2018-01-18T07:36:02.379Z,65
2018-01-18T07:37:12.893Z,70
2018-01-18T07:38:22.672Z,80
2018-01-18T07:39:32.716Z,70
2018-01-18T07:40:42.834Z,60
2018-01-18T07:41:52.879Z,55
2018-01-18T07:43:02.935Z,50
2018-01-18T07:44:12.723Z,50
2018-01-18T07:45:22.754Z,45
2018-01-18T07:46:32.800Z,45
2018-01-18T07:47:42.850Z,45
2018-01-18T07:48:52.928Z,45
2018-01-18T07:50:02.978Z,45
2018-01-18T07:51:13.052Z,50
2018-01-18T07:52:23.091Z,50
2018-01-18T07:53:32.865Z,55
2018-01-18T07:54:42.655Z,50
2018-01-18T07:55:52.691Z,50
2018-01-18T07:57:02.494Z,50
2018-01-18T07:58:12.296Z,50
2018-01-18T07:59:22.126Z,50
2018-01-18T08:00:32.295Z,50
2018-01-18T08:01:42.355Z,55
2018-01-18T08:02:52.403Z,55
2018-01-18T08:04:02.182Z,55
2018-01-18T08:05:12.250Z,60
2018-01-18T08:06:22.087Z,60
2018-01-18T08:07:32.528Z,60
2018-01-18T08:08:43.576Z,60
2018-01-18T08:09:53.371Z,60
2018-01-18T08:11:03.412Z,55
2018-01-18T08:12:13.528Z,55
2018-01-18T08:13:24.084Z,55
2018-01-18T08:14:34.150Z,55
2018-01-18T08:15:45.246Z,55
2018-01-18T08:16:54.776Z,55
2018-01-18T08:18:04.813Z,55
2018-01-18T08:19:14.850Z,60
2018-01-18T08:20:24.896Z,65
2018-01-18T08:21:34.682Z,65
2018-01-18T08:22:44.451Z,70
2018-01-18T08:23:54.596Z,75
2018-01-18T08:25:04.628Z,75
2018-01-18T08:26:14.681Z,80
2018-01-18T08:27:24.473Z,80
2018-01-18T08:28:34.257Z,80
2018-01-18T08:29:44.418Z,85
2018-01-18T08:30:54.458Z,85
2018-01-18T08:32:04.565Z,85
2018-01-18T08:33:14.695Z,85
2018-01-18T08:34:24.504Z,85
2018-01-18T08:35:34.613Z,90
2018-01-18T08:36:44.721Z,100
2018-01-18T08:37:54.462Z,105
2018-01-18T08:39:03.995Z,110
2018-01-18T08:40:14.052Z,105
2018-01-18T08:41:23.949Z,100
2018-01-18T08:42:33.747Z,95
2018-01-18T08:43:43.805Z,95
2018-01-18T08:44:53.857Z,105
2018-01-18T08:46:03.646Z,95
2018-01-18T08:47:13.700Z,95
2018-01-18T08:48:23.747Z,90
2018-01-18T08:49:33.837Z,80
2018-01-18T08:50:43.898Z,80
2018-01-18T08:51:53.709Z,80
2018-01-18T08:53:03.845Z,85
2018-01-18T08:54:13.896Z,90
2018-01-18T08:55:23.958Z,95
2018-01-18T08:56:34.007Z,95
2018-01-18T08:57:44.095Z,95
2018-01-18T08:58:54.152Z,95
2018-01-18T09:00:04.201Z,90
2018-01-18T09:01:14.000Z,90
2018-01-18T09:02:23.818Z,90
2018-01-18T09:03:34.285Z,90
2018-01-18T09:04:45.483Z,85
2018-01-18T09:05:55.293Z,85
2018-01-18T09:07:05.365Z,80
2018-01-18T09:08:15.412Z,80
2018-01-18T09:09:25.409Z,80
2018-01-18T09:10:35.972Z,85
2018-01-18T09:11:46.083Z,85
2018-01-18T09:12:57.641Z,85
2018-01-18T09:14:07.750Z,80
2018-01-18T09:15:17.569Z,80
2018-01-18T09:16:27.622Z,85
2018-01-18T09:17:37.713Z,85
2018-01-18T09:18:49.173Z,85
2018-01-18T09:19:59.288Z,85
2018-01-18T09:21:09.354Z,80
2018-01-18T09:22:19.544Z,85
2018-01-18T09:23:29.607Z,85
2018-01-18T09:24:39.399Z,85
2018-01-18T09:25:54.107Z,85
2018-01-18T09:27:04.927Z,85
2018-01-18T09:28:15.110Z,85
2018-01-18T09:29:25.326Z,85
2018-01-18T09:30:35.438Z,85
2018-01-18T09:31:45.480Z,90
2018-01-18T09:32:55.269Z,95
2018-01-18T09:34:05.195Z,90
2018-01-18T09:35:15.257Z,90
2018-01-18T09:36:25.036Z,85
2018-01-18T09:37:34.817Z,80
2018-01-18T09:38:44.599Z,80
2018-01-18T09:39:54.666Z,85
2018-01-18T09:41:04.731Z,85
2018-01-18T09:42:14.274Z,85
2018-01-18T09:43:25.429Z,90
2018-01-18T09:44:35.476Z,90
2018-01-18T09:45:45.639Z,95
2018-01-18T09:46:55.705Z,100
2018-01-18T09:48:05.764Z,100
2018-01-18T09:49:15.838Z,105
2018-01-18T09:50:25.631Z,105
2018-01-18T09:51:35.466Z,105
2018-01-18T09:52:45.527Z,105
2018-01-18T09:53:55.568Z,105
2018-01-18T09:55:05.639Z,100
2018-01-18T09:56:15.692Z,95
2018-01-18T09:57:25.818Z,95
2018-01-18T09:58:35.879Z,85
2018-01-18T09:59:45.926Z,80
2018-01-18T10:00:55.988Z,75
2018-01-18T10:02:06.053Z,75
2018-01-18T10:03:16.168Z,70
2018-01-18T10:04:25.723Z,65
2018-01-18T10:05:35.780Z,65
2018-01-18T10:06:45.581Z,65
2018-01-18T10:07:55.386Z,65
2018-01-18T10:09:05.284Z,65
2018-01-18T10:10:15.332Z,65
2018-01-18T10:11:25.372Z,65
2018-01-18T10:12:35.421Z,70
2018-01-18T10:13:45.481Z,65
2018-01-18T10:14:55.594Z,65
2018-01-18T10:16:05.656Z,65
2018-01-18T10:17:15.189Z,65
2018-01-18T10:18:24.740Z,65
2018-01-18T10:19:34.807Z,70
2018-01-18T10:20:44.977Z,70
2018-01-18T10:21:54.788Z,65
2018-01-18T10:23:04.637Z,65
2018-01-18T10:24:14.702Z,60
2018-01-18T10:25:24.509Z,55
2018-01-18T10:26:34.832Z,55
2018-01-18T10:27:44.873Z,50
2018-01-18T10:28:54.933Z,50
2018-01-18T10:30:04.986Z,55
2018-01-18T10:31:14.772Z,55
2018-01-18T10:32:24.890Z,55
2018-01-18T10:33:34.685Z,55
2018-01-18T10:34:45.013Z,50
2018-01-18T10:35:55.229Z,50
2018-01-18T10:37:05.035Z,55
2018-01-18T10:38:14.855Z,55
2018-01-18T10:39:24.650Z,50
2018-01-18T10:40:34.704Z,50
2018-01-18T10:41:44.779Z,50
2018-01-18T10:42:54.904Z,45
2018-01-18T10:44:04.938Z,45
2018-01-18T10:45:14.998Z,45
2018-01-18T10:46:24.794Z,45
2018-01-18T10:47:34.845Z,45
2018-01-18T10:48:44.893Z,45
2018-01-18T10:49:54.742Z,40
2018-01-18T10:51:04.809Z,40
2018-01-18T10:52:14.867Z,40
2018-01-18T10:53:24.928Z,45
2018-01-18T10:54:34.768Z,45
2018-01-18T10:55:44.582Z,45
2018-01-18T10:56:54.644Z,45
2018-01-18T10:58:04.447Z,45
2018-01-18T10:59:14.497Z,45
2018-01-18T11:00:24.602Z,45
2018-01-18T11:01:34.717Z,45
2018-01-18T11:02:44.538Z,45
2018-01-18T11:03:54.338Z,45
2018-01-18T11:05:04.439Z,45
2018-01-18T11:06:14.499Z,45
2018-01-18T11:07:24.618Z,45
2018-01-18T11:08:34.396Z,40
2018-01-18T11:09:44.482Z,40
2018-01-18T11:10:54.293Z,45
2018-01-18T11:12:04.357Z,45
2018-01-18T11:13:14.435Z,45
2018-01-18T11:14:24.246Z,45
2018-01-18T11:15:34.058Z,40
2018-01-18T11:16:44.506Z,40
2018-01-18T11:17:54.551Z,35
2018-01-18T11:19:04.726Z,35
2018-01-18T11:20:14.767Z,30
2018-01-18T11:21:24.562Z,30
2018-01-18T11:22:34.402Z,30
2018-01-18T11:23:44.462Z,30
2018-01-18T11:24:54.007Z,30
2018-01-18T11:26:04.070Z,30
2018-01-18T11:27:14.166Z,30
2018-01-18T11:28:23.975Z,30
2018-01-18T11:29:34.023Z,30
2018-01-18T11:30:44.081Z,30
2018-01-18T11:31:53.880Z,30
2018-01-18T11:33:04.189Z,25
2018-01-18T11:34:14.258Z,25
2018-01-18T11:35:24.310Z,30
2018-01-18T11:36:34.499Z,30
2018-01-18T11:37:44.301Z,30
2018-01-18T11:38:54.350Z,30
2018-01-18T11:40:04.198Z,30
2018-01-18T11:41:14.272Z,25
2018-01-18T11:42:24.464Z,25
2018-01-18T11:43:34.530Z,25
2018-01-18T11:44:44.591Z,25
2018-01-18T11:45:54.428Z,25
2018-01-18T11:47:04.494Z,25
2018-01-18T11:48:14.716Z,25
2018-01-18T11:49:24.848Z,25
2018-01-18T11:50:34.916Z,30
2018-01-18T11:51:44.950Z,30
2018-01-18T11:52:55.042Z,30
2018-01-18T11:54:05.179Z,30
2018-01-18T11:55:15.234Z,30
2018-01-18T11:56:25.311Z,30
2018-01-18T11:57:35.108Z,30
2018-01-18T11:58:45.177Z,30
2018-01-18T11:59:54.992Z,35
2018-01-18T12:01:05.047Z,35
2018-01-18T12:02:15.088Z,35
2018-01-18T12:03:24.939Z,35
2018-01-18T12:04:35.016Z,30
2018-01-18T12:05:45.070Z,30
2018-01-18T12:06:54.870Z,25
2018-01-18T12:08:04.936Z,25
2018-01-18T12:09:14.994Z,30
2018-01-18T12:10:25.042Z,30
2018-01-18T12:11:35.200Z,30
2018-01-18T12:12:44.990Z,30
2018-01-18T12:13:54.891Z,30
2018-01-18T12:15:06.124Z,30
2018-01-18T12:16:16.193Z,30
2018-01-18T12:17:26.920Z,30
2018-01-18T12:18:36.746Z,30
2018-01-18T12:19:46.540Z,30
2018-01-18T12:20:56.617Z,25
2018-01-18T12:22:06.676Z,25
2018-01-18T12:23:16.786Z,25
2018-01-18T12:24:26.581Z,25
2018-01-18T12:25:36.649Z,25
2018-01-18T12:26:46.455Z,25
2018-01-18T12:27:56.529Z,25
2018-01-18T12:29:06.639Z,20
2018-01-18T12:30:16.692Z,20
2018-01-18T12:31:26.548Z,20
2018-01-18T12:32:36.625Z,20
2018-01-18T12:33:46.775Z,20
2018-01-18T12:34:56.921Z,20
2018-01-18T12:36:06.980Z,20
2018-01-18T12:37:17.043Z,25
2018-01-18T12:38:27.115Z,25
2018-01-18T12:39:37.182Z,20
2018-01-18T12:40:47.297Z,20
2018-01-18T12:41:57.341Z,20
2018-01-18T12:43:07.401Z,25
2018-01-18T12:44:17.450Z,25
2018-01-18T12:45:27.493Z,30
2018-01-18T12:46:37.411Z,30
2018-01-18T12:47:47.211Z,25
2018-01-18T12:48:57.136Z,30
2018-01-18T12:50:08.189Z,40
2018-01-18T12:51:18.265Z,40
2018-01-18T12:52:28.365Z,45
2018-01-18T12:53:38.446Z,50
2018-01-18T12:54:48.258Z,50
2018-01-18T12:55:58.309Z,55
2018-01-18T12:57:08.381Z,65
2018-01-18T12:58:18.591Z,70
2018-01-18T12:59:28.145Z,75
2018-01-18T13:00:37.937Z,70
2018-01-18T13:01:47.996Z,60
2018-01-18T13:02:57.781Z,60
2018-01-18T13:04:07.911Z,65
2018-01-18T13:05:17.985Z,55
2018-01-18T13:06:27.799Z,45
2018-01-18T13:07:37.882Z,40
2018-01-18T13:08:47.937Z,40
2018-01-18T13:09:58.057Z,35
2018-01-18T13:11:08.157Z,30
2018-01-18T13:12:17.942Z,25
2018-01-18T13:13:27.998Z,25
2018-01-18T13:14:38.099Z,30
2018-01-18T13:15:48.208Z,35
2018-01-18T13:16:58.277Z,40
2018-01-18T13:18:08.061Z,40
2018-01-18T13:19:18.107Z,40
2018-01-18T13:20:28.183Z,35
2018-01-18T13:21:39.095Z,30
2018-01-18T13:22:49.620Z,30
2018-01-18T13:23:59.689Z,30
2018-01-18T13:25:09.760Z,35
2018-01-18T13:26:19.834Z,40
2018-01-18T13:27:29.617Z,40
2018-01-18T13:28:39.420Z,40
2018-01-18T13:29:49.496Z,40
2018-01-18T13:30:59.583Z,35
2018-01-18T13:32:09.678Z,35
2018-01-18T13:33:19.795Z,35
2018-01-18T13:34:29.852Z,35
2018-01-18T13:35:39.925Z,35
2018-01-18T13:36:49.988Z,35
2018-01-18T13:38:00.046Z,35
2018-01-18T13:39:10.234Z,35
2018-01-18T13:40:20.303Z,35
2018-01-18T13:41:30.613Z,30
2018-01-18T13:42:41.336Z,30
2018-01-18T13:43:51.395Z,30
2018-01-18T13:45:01.492Z,30
2018-01-18T13:46:11.318Z,30
2018-01-18T13:47:21.403Z,30
2018-01-18T13:48:31.230Z,30
2018-01-18T13:49:41.289Z,30
2018-01-18T13:50:51.833Z,30
2018-01-18T13:52:01.890Z,30
2018-01-18T13:53:11.930Z,35
2018-01-18T13:54:22.000Z,30
2018-01-18T13:55:32.121Z,35
2018-01-18T13:56:41.912Z,30
2018-01-18T13:57:51.967Z,30
2018-01-18T13:59:02.076Z,25
2018-01-18T14:00:12.123Z,30
2018-01-18T14:01:22.194Z,30
2018-01-18T14:02:31.997Z,30
2018-01-18T14:03:42.053Z,30
2018-01-18T14:04:51.900Z,30
2018-01-18T14:06:01.965Z,30
2018-01-18T14:07:12.028Z,30
2018-01-18T14:08:22.450Z,30
2018-01-18T14:09:32.527Z,30
2018-01-18T14:10:42.653Z,30
2018-01-18T14:11:52.705Z,30
2018-01-18T14:13:02.766Z,25
2018-01-18T14:14:12.805Z,20
2018-01-18T14:15:22.590Z,15
2018-01-18T14:16:32.744Z,15
2018-01-18T14:17:42.860Z,15
2018-01-18T14:18:52.929Z,15
2018-01-18T14:20:03.008Z,15
2018-01-18T14:21:13.119Z,15
2018-01-18T14:22:24.188Z,20
2018-01-18T14:23:34.840Z,20
2018-01-18T14:24:44.919Z,20
2018-01-18T14:25:55.002Z,20
2018-01-18T14:27:04.823Z,20
2018-01-18T14:28:14.928Z,20
2018-01-18T14:29:24.990Z,20
2018-01-18T14:30:35.068Z,20
2018-01-18T14:31:45.130Z,15
2018-01-18T14:32:54.929Z,15
2018-01-18T14:34:05.089Z,15
2018-01-18T14:35:15.135Z,15
2018-01-18T14:36:25.221Z,15
2018-01-18T14:37:35.286Z,15
2018-01-18T14:38:45.349Z,15
2018-01-18T14:39:55.212Z,10
2018-01-18T14:41:05.365Z,10
2018-01-18T14:42:15.168Z,10
2018-01-18T14:43:25.228Z,10
2018-01-18T14:44:35.300Z,10
2018-01-18T14:45:45.144Z,10
2018-01-18T14:46:55.055Z,10
2018-01-18T14:48:04.851Z,10
2018-01-18T14:49:14.923Z,10
2018-01-18T14:50:24.730Z,15
2018-01-18T14:51:34.869Z,15
2018-01-18T14:52:44.952Z,20
2018-01-18T14:53:54.513Z,25
2018-01-18T14:55:04.571Z,25
2018-01-18T14:56:14.650Z,25
2018-01-18T14:57:24.760Z,25
2018-01-18T14:58:34.813Z,25
2018-01-18T14:59:44.888Z,25
2018-01-18T15:00:54.956Z,25
2018-01-18T15:02:05.067Z,25
2018-01-18T15:03:14.916Z,25
2018-01-18T15:04:24.968Z,25
2018-01-18T15:05:35.023Z,25
2018-01-18T15:06:45.128Z,25
2018-01-18T15:07:55.195Z,20
2018-01-18T15:09:05.252Z,20
2018-01-18T15:10:15.312Z,20
2018-01-18T15:11:25.362Z,15
2018-01-18T15:12:35.440Z,15
2018-01-18T15:13:45.489Z,15
2018-01-18T15:14:55.660Z,10
2018-01-18T15:16:05.712Z,10
2018-01-18T15:17:15.785Z,10
2018-01-18T15:18:25.574Z,10
2018-01-18T15:19:35.635Z,5
2018-01-18T15:20:45.692Z,5
2018-01-18T15:21:55.746Z,5
2018-01-18T15:23:05.838Z,5
2018-01-18T15:24:15.886Z,0
2018-01-18T15:25:25.672Z,0
2018-01-18T15:26:35.783Z,0
2018-01-18T15:27:45.855Z,0
2018-01-18T15:28:55.899Z,0
2018-01-18T15:30:05.943Z,0
2018-01-18T15:31:15.743Z,0
2018-01-18T15:32:25.829Z,0
2018-01-18T15:33:35.630Z,0
2018-01-18T15:34:45.199Z,0
2018-01-18T15:35:55.257Z,0
2018-01-18T15:37:05.333Z,0
2018-01-18T15:38:15.490Z,0
2018-01-18T15:39:25.287Z,0
2018-01-18T15:40:35.372Z,0
2018-01-18T15:41:45.446Z,0
2018-01-18T15:42:55.332Z,0
2018-01-18T15:44:05.571Z,0
2018-01-18T15:45:15.405Z,0
2018-01-18T15:46:25.677Z,0
2018-01-18T15:47:35.737Z,0
2018-01-18T15:48:45.802Z,0
2018-01-18T15:49:55.700Z,0
2018-01-18T15:51:05.760Z,0
2018-01-18T15:52:15.823Z,0
2018-01-18T15:53:25.896Z,0
2018-01-18T15:54:35.700Z,0
2018-01-18T15:55:45.821Z,0
2018-01-18T15:56:55.892Z,0
2018-01-18T15:58:05.959Z,0
2018-01-18T15:59:15.776Z,0
2018-01-18T16:00:25.844Z,0
2018-01-18T16:01:35.709Z,0
2018-01-18T16:02:45.772Z,0
2018-01-18T16:03:55.836Z,0
2018-01-18T16:05:05.925Z,0
2018-01-18T16:06:16.678Z,0
2018-01-18T16:07:26.245Z,0
2018-01-18T16:08:36.069Z,0
2018-01-18T16:09:45.910Z,0
2018-01-18T16:10:55.982Z,0
2018-01-18T16:12:06.055Z,0
2018-01-18T16:13:16.304Z,0
2018-01-18T16:14:26.361Z,0
2018-01-18T16:15:36.404Z,0
2018-01-18T16:16:46.488Z,0
2018-01-18T16:17:56.575Z,0
2018-01-18T16:19:06.633Z,0
2018-01-18T16:20:16.684Z,0
2018-01-18T16:21:26.803Z,0
2018-01-18T16:22:36.608Z,0
2018-01-18T16:23:47.634Z,0
2018-01-18T16:24:58.523Z,0
2018-01-18T16:26:08.330Z,0
2018-01-18T16:27:18.378Z,0
2018-01-18T16:28:28.504Z,0
2018-01-18T16:29:38.589Z,0
2018-01-18T16:30:48.449Z,0
2018-01-18T16:31:58.542Z,0
2018-01-18T16:33:08.631Z,0
2018-01-18T16:34:18.709Z,0
2018-01-18T16:35:28.717Z,0
2018-01-18T16:36:38.878Z,0
2018-01-18T16:37:48.960Z,0
2018-01-18T16:38:59.033Z,0
2018-01-18T16:40:09.600Z,0
2018-01-18T16:41:19.731Z,0
2018-01-18T16:42:29.857Z,0
2018-01-18T16:43:39.982Z,0
2018-01-18T16:44:49.816Z,0
2018-01-18T16:45:59.658Z,0
2018-01-18T16:47:09.817Z,0
2018-01-18T16:48:19.882Z,0
2018-01-18T16:49:29.970Z,0
2018-01-18T16:50:40.041Z,0
2018-01-18T16:51:50.197Z,0
2018-01-18T16:53:00.034Z,0
2018-01-18T16:54:10.216Z,0
2018-01-18T16:55:20.410Z,0
2018-01-18T16:56:30.341Z,0
2018-01-18T16:57:40.537Z,0
2018-01-18T16:58:50.613Z,0
2018-01-18T17:00:00.740Z,0
2018-01-18T17:01:10.535Z,0
2018-01-18T17:02:20.627Z,0
2018-01-18T17:03:30.723Z,0
2018-01-18T17:04:40.525Z,0
2018-01-18T17:05:50.621Z,0
2018-01-18T17:07:00.454Z,0
2018-01-18T17:08:10.564Z,0
2018-01-18T17:09:20.627Z,0
2018-01-18T17:10:31.042Z,0
2018-01-18T17:11:40.937Z,0
2018-01-18T17:12:50.732Z,0
2018-01-18T17:14:00.803Z,0
2018-01-18T17:15:10.913Z,0
2018-01-18T17:16:20.726Z,0
2018-01-18T17:17:30.833Z,0
2018-01-18T17:18:41.006Z,0
2018-01-18T17:19:51.121Z,0
2018-01-18T17:21:01.175Z,0
2018-01-18T17:22:11.244Z,0
2018-01-18T17:23:21.334Z,0
2018-01-18T17:24:31.445Z,0
2018-01-18T17:25:41.587Z,0
2018-01-18T17:26:51.748Z,0
2018-01-18T17:28:01.838Z,0
2018-01-18T17:29:11.957Z,0
2018-01-18T17:30:22.025Z,0
2018-01-18T17:31:32.088Z,0
2018-01-18T17:32:42.182Z,0
2018-01-18T17:33:52.411Z,0
2018-01-18T17:35:02.256Z,0
2018-01-18T17:36:12.427Z,0